sensor_id;sensor_type;location;lat;lon;timestamp;temperature;humidity
52058;DHT22;38063;53.210;6.504;2023-02-15T00:01:39;1.30;99.90
52058;DHT22;38063;53.210;6.504;2023-02-15T00:04:06;1.20;99.90
52058;DHT22;38063;53.210;6.504;2023-02-15T00:06:32;1.20;99.90
52058;DHT22;38063;53.210;6.504;2023-02-15T00:08:58;1.20;99.90
52058;DHT22;38063;53.210;6.504;2023-02-15T00:11:24;1.20;99.90
52058;DHT22;38063;53.210;6.504;2023-02-15T00:14:22;1.10;99.90
52058;DHT22;38063;53.210;6.504;2023-02-15T00:16:49;1.10;99.90
52058;DHT22;38063;53.210;6.504;2023-02-15T00:19:17;1.10;99.90
52058;DHT22;38063;53.210;6.504;2023-02-15T00:21:43;1.00;99.90
52058;DHT22;38063;53.210;6.504;2023-02-15T00:24:11;1.00;99.90
52058;DHT22;38063;53.210;6.504;2023-02-15T00:26:41;1.00;99.90
52058;DHT22;38063;53.210;6.504;2023-02-15T00:29:08;1.00;99.90
52058;DHT22;38063;53.210;6.504;2023-02-15T00:31:35;1.00;99.90
52058;DHT22;38063;53.210;6.504;2023-02-15T00:36:31;0.90;99.90
52058;DHT22;38063;53.210;6.504;2023-02-15T00:38:57;0.90;99.90
52058;DHT22;38063;53.210;6.504;2023-02-15T00:41:23;0.90;99.90
52058;DHT22;38063;53.210;6.504;2023-02-15T00:43:48;0.90;99.90
52058;DHT22;38063;53.210;6.504;2023-02-15T00:46:14;0.90;99.90
52058;DHT22;38063;53.210;6.504;2023-02-15T00:48:40;0.90;99.90
52058;DHT22;38063;53.210;6.504;2023-02-15T00:51:05;0.80;99.90
52058;DHT22;38063;53.210;6.504;2023-02-15T00:53:31;0.80;99.90
52058;DHT22;38063;53.210;6.504;2023-02-15T00:55:57;0.80;99.90
52058;DHT22;38063;53.210;6.504;2023-02-15T00:58:24;0.80;99.90
52058;DHT22;38063;53.210;6.504;2023-02-15T01:00:50;0.80;99.90
52058;DHT22;38063;53.210;6.504;2023-02-15T01:03:17;0.70;99.90
52058;DHT22;38063;53.210;6.504;2023-02-15T01:05:43;0.70;99.90
52058;DHT22;38063;53.210;6.504;2023-02-15T01:08:09;0.70;99.90
52058;DHT22;38063;53.210;6.504;2023-02-15T01:10:36;0.60;99.90
52058;DHT22;38063;53.210;6.504;2023-02-15T01:13:01;0.60;99.90
52058;DHT22;38063;53.210;6.504;2023-02-15T01:15:27;0.60;99.90
52058;DHT22;38063;53.210;6.504;2023-02-15T01:17:53;0.60;99.90
52058;DHT22;38063;53.210;6.504;2023-02-15T01:20:21;0.50;99.90
52058;DHT22;38063;53.210;6.504;2023-02-15T01:22:47;0.50;99.90
52058;DHT22;38063;53.210;6.504;2023-02-15T01:25:18;0.50;99.90
52058;DHT22;38063;53.210;6.504;2023-02-15T01:27:45;0.50;99.90
52058;DHT22;38063;53.210;6.504;2023-02-15T01:30:12;0.50;99.90
52058;DHT22;38063;53.210;6.504;2023-02-15T01:32:38;0.50;99.90
52058;DHT22;38063;53.210;6.504;2023-02-15T01:35:04;0.50;99.90
52058;DHT22;38063;53.210;6.504;2023-02-15T01:37:33;0.50;99.90
52058;DHT22;38063;53.210;6.504;2023-02-15T01:40:00;0.50;99.90
52058;DHT22;38063;53.210;6.504;2023-02-15T01:42:27;0.40;99.90
52058;DHT22;38063;53.210;6.504;2023-02-15T01:44:57;0.40;99.90
52058;DHT22;38063;53.210;6.504;2023-02-15T01:50:02;0.40;99.90
52058;DHT22;38063;53.210;6.504;2023-02-15T01:52:32;0.40;99.90
52058;DHT22;38063;53.210;6.504;2023-02-15T01:54:59;0.40;99.90
52058;DHT22;38063;53.210;6.504;2023-02-15T01:57:26;0.40;99.90
52058;DHT22;38063;53.210;6.504;2023-02-15T01:59:56;0.40;99.90
52058;DHT22;38063;53.210;6.504;2023-02-15T02:02:23;0.40;99.90
52058;DHT22;38063;53.210;6.504;2023-02-15T02:04:56;0.40;99.90
52058;DHT22;38063;53.210;6.504;2023-02-15T02:07:27;0.40;99.90
52058;DHT22;38063;53.210;6.504;2023-02-15T02:09:54;0.40;99.90
52058;DHT22;38063;53.210;6.504;2023-02-15T02:12:21;0.40;99.90
52058;DHT22;38063;53.210;6.504;2023-02-15T02:14:49;0.40;99.90
52058;DHT22;38063;53.210;6.504;2023-02-15T02:17:47;0.40;99.90
52058;DHT22;38063;53.210;6.504;2023-02-15T02:23:14;0.40;99.90
52058;DHT22;38063;53.210;6.504;2023-02-15T02:26:08;0.40;99.90
52058;DHT22;38063;53.210;6.504;2023-02-15T02:29:05;0.40;99.90
52058;DHT22;38063;53.210;6.504;2023-02-15T02:31:49;0.30;99.90
52058;DHT22;38063;53.210;6.504;2023-02-15T02:34:42;0.30;99.90
52058;DHT22;38063;53.210;6.504;2023-02-15T02:37:23;0.30;99.90
52058;DHT22;38063;53.210;6.504;2023-02-15T02:39:54;0.30;99.90
52058;DHT22;38063;53.210;6.504;2023-02-15T02:42:39;0.30;99.90
52058;DHT22;38063;53.210;6.504;2023-02-15T02:45:30;0.30;99.90
52058;DHT22;38063;53.210;6.504;2023-02-15T02:47:59;0.30;99.90
52058;DHT22;38063;53.210;6.504;2023-02-15T02:50:28;0.30;99.90
52058;DHT22;38063;53.210;6.504;2023-02-15T02:52:56;0.30;99.90
52058;DHT22;38063;53.210;6.504;2023-02-15T02:55:30;0.20;99.90
52058;DHT22;38063;53.210;6.504;2023-02-15T03:01:17;0.30;99.90
52058;DHT22;38063;53.210;6.504;2023-02-15T03:03:49;0.20;99.90
52058;DHT22;38063;53.210;6.504;2023-02-15T03:06:21;0.20;99.90
52058;DHT22;38063;53.210;6.504;2023-02-15T03:08:58;0.20;99.90
52058;DHT22;38063;53.210;6.504;2023-02-15T03:11:25;0.20;99.90
52058;DHT22;38063;53.210;6.504;2023-02-15T03:13:51;0.20;99.90
52058;DHT22;38063;53.210;6.504;2023-02-15T03:16:18;0.10;99.90
52058;DHT22;38063;53.210;6.504;2023-02-15T03:19:05;0.10;99.90
52058;DHT22;38063;53.210;6.504;2023-02-15T03:24:41;0.10;99.90
52058;DHT22;38063;53.210;6.504;2023-02-15T03:27:12;0.10;99.90
52058;DHT22;38063;53.210;6.504;2023-02-15T03:29:48;0.90;99.90
52058;DHT22;38063;53.210;6.504;2023-02-15T03:32:15;0.00;99.90
52058;DHT22;38063;53.210;6.504;2023-02-15T03:34:42;0.00;99.90
52058;DHT22;38063;53.210;6.504;2023-02-15T03:40:31;0.00;99.90
52058;DHT22;38063;53.210;6.504;2023-02-15T03:43:27;0.00;99.90
52058;DHT22;38063;53.210;6.504;2023-02-15T03:46:05;0.00;99.90
52058;DHT22;38063;53.210;6.504;2023-02-15T03:48:36;-0.10;99.90
52058;DHT22;38063;53.210;6.504;2023-02-15T03:51:08;-0.10;99.90
52058;DHT22;38063;53.210;6.504;2023-02-15T03:53:55;-0.10;99.90
52058;DHT22;38063;53.210;6.504;2023-02-15T03:56:22;-0.10;99.90
52058;DHT22;38063;53.210;6.504;2023-02-15T03:58:48;-0.10;99.90
52058;DHT22;38063;53.210;6.504;2023-02-15T04:01:42;-0.20;99.90
52058;DHT22;38063;53.210;6.504;2023-02-15T04:04:25;-0.20;99.90
52058;DHT22;38063;53.210;6.504;2023-02-15T04:06:52;-0.20;99.90
52058;DHT22;38063;53.210;6.504;2023-02-15T04:09:18;-0.10;99.90
52058;DHT22;38063;53.210;6.504;2023-02-15T04:12:02;-0.20;99.90
52058;DHT22;38063;53.210;6.504;2023-02-15T04:14:28;-0.20;99.90
52058;DHT22;38063;53.210;6.504;2023-02-15T04:17:12;-0.20;99.90
52058;DHT22;38063;53.210;6.504;2023-02-15T04:19:38;-0.20;99.90
52058;DHT22;38063;53.210;6.504;2023-02-15T04:22:22;-0.30;99.90
52058;DHT22;38063;53.210;6.504;2023-02-15T04:25:06;-0.30;99.90
52058;DHT22;38063;53.210;6.504;2023-02-15T04:27:37;-0.30;99.90
52058;DHT22;38063;53.210;6.504;2023-02-15T04:30:03;-0.30;99.90
52058;DHT22;38063;53.210;6.504;2023-02-15T04:32:29;-0.30;99.90
52058;DHT22;38063;53.210;6.504;2023-02-15T04:34:54;-0.30;99.90
52058;DHT22;38063;53.210;6.504;2023-02-15T04:37:20;-0.30;99.90
52058;DHT22;38063;53.210;6.504;2023-02-15T04:39:46;-0.30;99.90
52058;DHT22;38063;53.210;6.504;2023-02-15T04:42:11;0.40;99.90
52058;DHT22;38063;53.210;6.504;2023-02-15T04:44:37;-0.30;99.90
52058;DHT22;38063;53.210;6.504;2023-02-15T04:47:14;-0.40;99.90
52058;DHT22;38063;53.210;6.504;2023-02-15T04:49:40;-0.40;99.90
52058;DHT22;38063;53.210;6.504;2023-02-15T04:52:06;-0.40;99.90
52058;DHT22;38063;53.210;6.504;2023-02-15T04:54:31;-0.40;99.90
52058;DHT22;38063;53.210;6.504;2023-02-15T04:56:57;-0.40;99.90
52058;DHT22;38063;53.210;6.504;2023-02-15T04:59:23;-0.40;99.90
52058;DHT22;38063;53.210;6.504;2023-02-15T05:01:48;-0.40;99.90
52058;DHT22;38063;53.210;6.504;2023-02-15T05:04:14;-0.40;99.90
52058;DHT22;38063;53.210;6.504;2023-02-15T05:06:39;-0.40;99.90
52058;DHT22;38063;53.210;6.504;2023-02-15T05:09:05;-0.40;99.90
52058;DHT22;38063;53.210;6.504;2023-02-15T05:11:31;-0.50;99.90
52058;DHT22;38063;53.210;6.504;2023-02-15T05:13:56;-0.50;99.90
52058;DHT22;38063;53.210;6.504;2023-02-15T05:16:22;-0.50;99.90
52058;DHT22;38063;53.210;6.504;2023-02-15T05:18:48;-0.50;99.90
52058;DHT22;38063;53.210;6.504;2023-02-15T05:21:13;-0.50;99.90
52058;DHT22;38063;53.210;6.504;2023-02-15T05:23:42;-0.50;99.90
52058;DHT22;38063;53.210;6.504;2023-02-15T05:26:11;-0.50;99.90
52058;DHT22;38063;53.210;6.504;2023-02-15T05:28:56;-0.60;99.90
52058;DHT22;38063;53.210;6.504;2023-02-15T05:31:22;-0.60;99.90
52058;DHT22;38063;53.210;6.504;2023-02-15T05:33:47;-0.50;99.90
52058;DHT22;38063;53.210;6.504;2023-02-15T05:36:13;-0.50;99.90
52058;DHT22;38063;53.210;6.504;2023-02-15T05:38:39;-0.50;99.90
52058;DHT22;38063;53.210;6.504;2023-02-15T05:41:09;-0.50;99.90
52058;DHT22;38063;53.210;6.504;2023-02-15T05:43:35;-0.50;99.90
52058;DHT22;38063;53.210;6.504;2023-02-15T05:46:02;0.30;99.90
52058;DHT22;38063;53.210;6.504;2023-02-15T05:48:28;-0.50;99.90
52058;DHT22;38063;53.210;6.504;2023-02-15T05:50:58;-0.50;99.90
52058;DHT22;38063;53.210;6.504;2023-02-15T05:53:25;-0.40;99.90
52058;DHT22;38063;53.210;6.504;2023-02-15T05:55:51;-0.40;99.90
52058;DHT22;38063;53.210;6.504;2023-02-15T05:58:16;-0.40;99.90
52058;DHT22;38063;53.210;6.504;2023-02-15T06:00:42;-0.40;99.90
52058;DHT22;38063;53.210;6.504;2023-02-15T06:03:07;-0.40;99.90
52058;DHT22;38063;53.210;6.504;2023-02-15T06:05:33;-0.40;99.90
52058;DHT22;38063;53.210;6.504;2023-02-15T06:07:59;-0.30;99.90
52058;DHT22;38063;53.210;6.504;2023-02-15T06:10:24;-0.30;99.90
52058;DHT22;38063;53.210;6.504;2023-02-15T06:12:50;-0.30;99.90
52058;DHT22;38063;53.210;6.504;2023-02-15T06:15:15;-0.30;99.90
52058;DHT22;38063;53.210;6.504;2023-02-15T06:17:41;-0.30;99.90
52058;DHT22;38063;53.210;6.504;2023-02-15T06:20:08;-0.30;99.90
52058;DHT22;38063;53.210;6.504;2023-02-15T06:22:34;-0.30;99.90
52058;DHT22;38063;53.210;6.504;2023-02-15T06:25:00;-0.30;99.90
52058;DHT22;38063;53.210;6.504;2023-02-15T06:27:25;-0.20;99.90
52058;DHT22;38063;53.210;6.504;2023-02-15T06:29:51;-0.20;99.90
52058;DHT22;38063;53.210;6.504;2023-02-15T06:32:17;-0.10;99.90
52058;DHT22;38063;53.210;6.504;2023-02-15T06:34:42;-0.10;99.90
52058;DHT22;38063;53.210;6.504;2023-02-15T06:37:08;0.00;99.90
52058;DHT22;38063;53.210;6.504;2023-02-15T06:39:34;0.00;99.90
52058;DHT22;38063;53.210;6.504;2023-02-15T06:41:59;0.10;99.90
52058;DHT22;38063;53.210;6.504;2023-02-15T06:44:25;0.10;99.90
52058;DHT22;38063;53.210;6.504;2023-02-15T06:46:51;0.10;99.90
52058;DHT22;38063;53.210;6.504;2023-02-15T06:49:16;0.10;99.90
52058;DHT22;38063;53.210;6.504;2023-02-15T06:51:42;0.10;99.90
52058;DHT22;38063;53.210;6.504;2023-02-15T06:54:08;0.10;99.90
52058;DHT22;38063;53.210;6.504;2023-02-15T06:56:33;0.10;99.90
52058;DHT22;38063;53.210;6.504;2023-02-15T06:58:59;0.00;99.90
52058;DHT22;38063;53.210;6.504;2023-02-15T07:01:25;0.00;99.90
52058;DHT22;38063;53.210;6.504;2023-02-15T07:03:50;0.00;99.90
52058;DHT22;38063;53.210;6.504;2023-02-15T07:06:16;0.00;99.90
52058;DHT22;38063;53.210;6.504;2023-02-15T07:08:42;0.00;99.90
52058;DHT22;38063;53.210;6.504;2023-02-15T07:11:07;0.00;99.90
52058;DHT22;38063;53.210;6.504;2023-02-15T07:13:52;0.00;99.90
52058;DHT22;38063;53.210;6.504;2023-02-15T07:16:18;0.00;99.90
52058;DHT22;38063;53.210;6.504;2023-02-15T07:18:44;0.00;99.90
52058;DHT22;38063;53.210;6.504;2023-02-15T07:21:10;0.00;99.90
52058;DHT22;38063;53.210;6.504;2023-02-15T07:23:36;0.00;99.90
52058;DHT22;38063;53.210;6.504;2023-02-15T07:26:03;0.00;99.90
52058;DHT22;38063;53.210;6.504;2023-02-15T07:28:29;-0.40;99.90
52058;DHT22;38063;53.210;6.504;2023-02-15T07:30:55;0.00;99.90
52058;DHT22;38063;53.210;6.504;2023-02-15T07:33:21;0.10;99.90
52058;DHT22;38063;53.210;6.504;2023-02-15T07:35:51;0.10;99.90
52058;DHT22;38063;53.210;6.504;2023-02-15T07:38:17;0.10;99.90
52058;DHT22;38063;53.210;6.504;2023-02-15T07:40:44;0.10;99.90
52058;DHT22;38063;53.210;6.504;2023-02-15T07:43:10;0.20;99.90
52058;DHT22;38063;53.210;6.504;2023-02-15T07:45:35;0.20;99.90
52058;DHT22;38063;53.210;6.504;2023-02-15T07:48:02;0.30;99.90
52058;DHT22;38063;53.210;6.504;2023-02-15T07:50:28;0.30;99.90
52058;DHT22;38063;53.210;6.504;2023-02-15T07:52:54;0.40;99.90
52058;DHT22;38063;53.210;6.504;2023-02-15T07:55:20;0.40;99.90
52058;DHT22;38063;53.210;6.504;2023-02-15T07:57:47;0.50;99.90
52058;DHT22;38063;53.210;6.504;2023-02-15T08:00:14;0.60;99.90
52058;DHT22;38063;53.210;6.504;2023-02-15T08:02:41;0.60;99.90
52058;DHT22;38063;53.210;6.504;2023-02-15T08:05:06;1.20;99.90
52058;DHT22;38063;53.210;6.504;2023-02-15T08:07:32;0.70;99.90
52058;DHT22;38063;53.210;6.504;2023-02-15T08:09:58;0.80;99.90
52058;DHT22;38063;53.210;6.504;2023-02-15T08:12:27;0.80;99.90
52058;DHT22;38063;53.210;6.504;2023-02-15T08:14:53;0.80;99.90
52058;DHT22;38063;53.210;6.504;2023-02-15T08:17:19;0.80;99.90
52058;DHT22;38063;53.210;6.504;2023-02-15T08:19:44;0.90;99.90
52058;DHT22;38063;53.210;6.504;2023-02-15T08:22:13;0.80;99.90
52058;DHT22;38063;53.210;6.504;2023-02-15T08:24:40;0.90;99.90
52058;DHT22;38063;53.210;6.504;2023-02-15T08:27:09;1.00;99.90
52058;DHT22;38063;53.210;6.504;2023-02-15T08:29:36;1.00;99.90
52058;DHT22;38063;53.210;6.504;2023-02-15T08:32:05;1.00;99.90
52058;DHT22;38063;53.210;6.504;2023-02-15T08:34:33;1.10;99.90
52058;DHT22;38063;53.210;6.504;2023-02-15T08:36:59;1.10;99.90
52058;DHT22;38063;53.210;6.504;2023-02-15T08:39:26;1.20;99.90
52058;DHT22;38063;53.210;6.504;2023-02-15T08:41:51;1.20;99.90
52058;DHT22;38063;53.210;6.504;2023-02-15T08:44:18;1.20;99.90
52058;DHT22;38063;53.210;6.504;2023-02-15T08:46:46;2.60;99.90
52058;DHT22;38063;53.210;6.504;2023-02-15T08:49:17;1.30;99.90
52058;DHT22;38063;53.210;6.504;2023-02-15T08:51:43;1.30;99.90
52058;DHT22;38063;53.210;6.504;2023-02-15T08:54:12;1.40;99.90
52058;DHT22;38063;53.210;6.504;2023-02-15T08:56:40;1.50;99.90
52058;DHT22;38063;53.210;6.504;2023-02-15T08:59:07;1.50;99.90
52058;DHT22;38063;53.210;6.504;2023-02-15T09:01:36;1.60;99.90
52058;DHT22;38063;53.210;6.504;2023-02-15T09:04:04;1.60;99.90
52058;DHT22;38063;53.210;6.504;2023-02-15T09:06:31;1.70;99.90
52058;DHT22;38063;53.210;6.504;2023-02-15T09:08:57;1.80;99.90
52058;DHT22;38063;53.210;6.504;2023-02-15T09:11:30;1.80;99.90
52058;DHT22;38063;53.210;6.504;2023-02-15T09:13:59;1.90;99.90
52058;DHT22;38063;53.210;6.504;2023-02-15T09:16:27;1.90;99.90
52058;DHT22;38063;53.210;6.504;2023-02-15T09:18:53;2.00;99.90
52058;DHT22;38063;53.210;6.504;2023-02-15T09:21:21;2.10;99.90
52058;DHT22;38063;53.210;6.504;2023-02-15T09:23:49;2.10;99.90
52058;DHT22;38063;53.210;6.504;2023-02-15T09:26:17;2.10;99.90
52058;DHT22;38063;53.210;6.504;2023-02-15T09:28:44;2.20;99.90
52058;DHT22;38063;53.210;6.504;2023-02-15T09:31:17;2.70;99.90
52058;DHT22;38063;53.210;6.504;2023-02-15T09:33:45;2.30;99.90
52058;DHT22;38063;53.210;6.504;2023-02-15T09:36:16;2.40;99.90
52058;DHT22;38063;53.210;6.504;2023-02-15T09:38:44;2.50;99.90
52058;DHT22;38063;53.210;6.504;2023-02-15T09:49:56;2.80;99.90
52058;DHT22;38063;53.210;6.504;2023-02-15T09:52:31;2.90;99.90
52058;DHT22;38063;53.210;6.504;2023-02-15T09:57:47;3.10;99.90
52058;DHT22;38063;53.210;6.504;2023-02-15T10:03:20;3.20;99.90
52058;DHT22;38063;53.210;6.504;2023-02-15T10:08:32;3.40;99.90
52058;DHT22;38063;53.210;6.504;2023-02-15T10:22:33;3.80;99.90
52058;DHT22;38063;53.210;6.504;2023-02-15T10:28:06;4.00;99.90
52058;DHT22;38063;53.210;6.504;2023-02-15T10:33:16;4.20;99.90
52058;DHT22;38063;53.210;6.504;2023-02-15T10:36:11;4.20;99.90
52058;DHT22;38063;53.210;6.504;2023-02-15T10:44:33;4.50;99.90
52058;DHT22;38063;53.210;6.504;2023-02-15T10:49:52;4.80;99.90
52058;DHT22;38063;53.210;6.504;2023-02-15T10:53:15;4.90;99.90
52058;DHT22;38063;53.210;6.504;2023-02-15T11:06:40;5.50;99.90
52058;DHT22;38063;53.210;6.504;2023-02-15T11:09:12;5.60;99.90
52058;DHT22;38063;53.210;6.504;2023-02-15T11:11:40;5.70;99.90
52058;DHT22;38063;53.210;6.504;2023-02-15T11:14:17;5.80;99.90
52058;DHT22;38063;53.210;6.504;2023-02-15T11:16:49;5.90;99.90
52058;DHT22;38063;53.210;6.504;2023-02-15T11:19:27;6.00;99.90
52058;DHT22;38063;53.210;6.504;2023-02-15T11:22:00;6.10;99.90
52058;DHT22;38063;53.210;6.504;2023-02-15T11:24:29;6.20;99.90
52058;DHT22;38063;53.210;6.504;2023-02-15T11:37:35;6.70;99.90
52058;DHT22;38063;53.210;6.504;2023-02-15T11:40:04;6.80;99.90
52058;DHT22;38063;53.210;6.504;2023-02-15T11:42:39;7.00;99.90
52058;DHT22;38063;53.210;6.504;2023-02-15T11:45:29;7.10;99.90
52058;DHT22;38063;53.210;6.504;2023-02-15T11:47:56;7.30;99.90
52058;DHT22;38063;53.210;6.504;2023-02-15T11:50:31;7.40;99.90
52058;DHT22;38063;53.210;6.504;2023-02-15T11:53:00;7.50;99.90
52058;DHT22;38063;53.210;6.504;2023-02-15T11:55:27;7.60;99.90
52058;DHT22;38063;53.210;6.504;2023-02-15T11:58:09;7.70;99.90
52058;DHT22;38063;53.210;6.504;2023-02-15T12:00:45;7.80;99.90
52058;DHT22;38063;53.210;6.504;2023-02-15T12:06:11;8.00;99.90
52058;DHT22;38063;53.210;6.504;2023-02-15T12:08:40;8.10;99.90
52058;DHT22;38063;53.210;6.504;2023-02-15T12:11:11;8.30;99.90
52058;DHT22;38063;53.210;6.504;2023-02-15T12:16:19;8.50;99.90
52058;DHT22;38063;53.210;6.504;2023-02-15T12:18:47;8.60;99.90
52058;DHT22;38063;53.210;6.504;2023-02-15T12:21:39;8.70;99.90
52058;DHT22;38063;53.210;6.504;2023-02-15T12:24:20;8.80;99.90
52058;DHT22;38063;53.210;6.504;2023-02-15T12:26:57;8.90;99.90
52058;DHT22;38063;53.210;6.504;2023-02-15T12:29:28;9.00;99.90
52058;DHT22;38063;53.210;6.504;2023-02-15T12:31:56;9.00;99.90
52058;DHT22;38063;53.210;6.504;2023-02-15T12:34:32;9.20;99.90
52058;DHT22;38063;53.210;6.504;2023-02-15T12:37:00;9.10;99.90
52058;DHT22;38063;53.210;6.504;2023-02-15T12:39:30;9.20;99.90
52058;DHT22;38063;53.210;6.504;2023-02-15T12:42:00;9.20;99.90
52058;DHT22;38063;53.210;6.504;2023-02-15T12:44:32;9.30;99.90
52058;DHT22;38063;53.210;6.504;2023-02-15T12:49:27;9.50;99.90
52058;DHT22;38063;53.210;6.504;2023-02-15T12:51:56;9.60;99.90
52058;DHT22;38063;53.210;6.504;2023-02-15T12:56:48;9.80;99.90
52058;DHT22;38063;53.210;6.504;2023-02-15T12:59:14;9.80;99.90
52058;DHT22;38063;53.210;6.504;2023-02-15T13:01:46;9.90;99.90
52058;DHT22;38063;53.210;6.504;2023-02-15T13:06:48;10.00;99.90
52058;DHT22;38063;53.210;6.504;2023-02-15T13:09:18;10.10;99.90
52058;DHT22;38063;53.210;6.504;2023-02-15T13:11:45;10.10;99.90
52058;DHT22;38063;53.210;6.504;2023-02-15T13:14:37;10.20;99.90
52058;DHT22;38063;53.210;6.504;2023-02-15T13:17:08;10.20;99.90
52058;DHT22;38063;53.210;6.504;2023-02-15T13:19:36;10.20;99.90
52058;DHT22;38063;53.210;6.504;2023-02-15T13:22:06;10.20;99.90
52058;DHT22;38063;53.210;6.504;2023-02-15T13:24:39;10.20;99.90
52058;DHT22;38063;53.210;6.504;2023-02-15T13:27:12;10.60;99.90
52058;DHT22;38063;53.210;6.504;2023-02-15T13:29:39;10.20;99.90
52058;DHT22;38063;53.210;6.504;2023-02-15T13:32:33;10.30;99.90
52058;DHT22;38063;53.210;6.504;2023-02-15T13:35:02;10.40;99.90
52058;DHT22;38063;53.210;6.504;2023-02-15T13:40:37;10.30;99.90
52058;DHT22;38063;53.210;6.504;2023-02-15T13:46:19;10.30;99.90
52058;DHT22;38063;53.210;6.504;2023-02-15T14:08:02;10.40;99.90
52058;DHT22;38063;53.210;6.504;2023-02-15T14:21:42;10.50;99.90
52058;DHT22;38063;53.210;6.504;2023-02-15T14:24:15;10.50;99.90
52058;DHT22;38063;53.210;6.504;2023-02-15T14:29:53;10.50;99.90
52058;DHT22;38063;53.210;6.504;2023-02-15T14:34:55;10.50;99.90
52058;DHT22;38063;53.210;6.504;2023-02-15T14:37:43;10.60;99.90
52058;DHT22;38063;53.210;6.504;2023-02-15T14:40:34;10.60;99.90
52058;DHT22;38063;53.210;6.504;2023-02-15T14:49:27;10.70;99.90
52058;DHT22;38063;53.210;6.504;2023-02-15T14:52:13;10.60;99.90
52058;DHT22;38063;53.210;6.504;2023-02-15T15:04:39;10.50;99.90
52058;DHT22;38063;53.210;6.504;2023-02-15T15:09:48;10.40;99.90
52058;DHT22;38063;53.210;6.504;2023-02-15T15:14:48;10.30;99.90
52058;DHT22;38063;53.210;6.504;2023-02-15T15:20:12;10.20;99.90
52058;DHT22;38063;53.210;6.504;2023-02-15T15:22:42;10.20;99.90
52058;DHT22;38063;53.210;6.504;2023-02-15T15:25:12;10.10;99.90
52058;DHT22;38063;53.210;6.504;2023-02-15T15:27:56;10.00;99.90
52058;DHT22;38063;53.210;6.504;2023-02-15T15:49:28;9.60;99.90
52058;DHT22;38063;53.210;6.504;2023-02-15T15:51:56;9.50;99.90
52058;DHT22;38063;53.210;6.504;2023-02-15T15:54:26;9.50;99.90
52058;DHT22;38063;53.210;6.504;2023-02-15T15:56:55;9.40;99.90
52058;DHT22;38063;53.210;6.504;2023-02-15T15:59:27;9.40;99.90
52058;DHT22;38063;53.210;6.504;2023-02-15T16:01:55;9.40;99.90
52058;DHT22;38063;53.210;6.504;2023-02-15T16:04:32;9.20;99.90
52058;DHT22;38063;53.210;6.504;2023-02-15T16:07:18;9.10;99.90
52058;DHT22;38063;53.210;6.504;2023-02-15T16:09:59;9.10;99.90
52058;DHT22;38063;53.210;6.504;2023-02-15T16:12:27;9.00;99.90
52058;DHT22;38063;53.210;6.504;2023-02-15T16:14:55;8.90;99.90
52058;DHT22;38063;53.210;6.504;2023-02-15T16:17:27;8.80;99.90
52058;DHT22;38063;53.210;6.504;2023-02-15T16:20:27;8.70;99.90
52058;DHT22;38063;53.210;6.504;2023-02-15T16:27:55;8.50;99.90
52058;DHT22;38063;53.210;6.504;2023-02-15T16:30:32;8.40;99.90
52058;DHT22;38063;53.210;6.504;2023-02-15T16:33:16;8.30;99.90
52058;DHT22;38063;53.210;6.504;2023-02-15T16:36:02;8.30;99.90
52058;DHT22;38063;53.210;6.504;2023-02-15T16:41:12;8.00;99.90
52058;DHT22;38063;53.210;6.504;2023-02-15T16:43:40;8.00;99.90
52058;DHT22;38063;53.210;6.504;2023-02-15T16:46:13;7.90;99.90
52058;DHT22;38063;53.210;6.504;2023-02-15T16:48:46;7.80;99.90
52058;DHT22;38063;53.210;6.504;2023-02-15T16:51:23;7.70;99.90
52058;DHT22;38063;53.210;6.504;2023-02-15T16:53:49;7.60;99.90
52058;DHT22;38063;53.210;6.504;2023-02-15T16:56:29;7.60;99.90
52058;DHT22;38063;53.210;6.504;2023-02-15T16:58:58;7.50;99.90
52058;DHT22;38063;53.210;6.504;2023-02-15T17:01:28;7.40;99.90
52058;DHT22;38063;53.210;6.504;2023-02-15T17:04:21;7.90;99.90
52058;DHT22;38063;53.210;6.504;2023-02-15T17:07:16;7.30;99.90
52058;DHT22;38063;53.210;6.504;2023-02-15T17:09:53;7.20;99.90
52058;DHT22;38063;53.210;6.504;2023-02-15T17:12:54;7.10;99.90
52058;DHT22;38063;53.210;6.504;2023-02-15T17:15:34;7.10;99.90
52058;DHT22;38063;53.210;6.504;2023-02-15T17:20:33;6.90;99.90
52058;DHT22;38063;53.210;6.504;2023-02-15T17:22:59;6.90;99.90
52058;DHT22;38063;53.210;6.504;2023-02-15T17:25:51;6.90;99.90
52058;DHT22;38063;53.210;6.504;2023-02-15T17:28:23;6.70;99.90
52058;DHT22;38063;53.210;6.504;2023-02-15T17:30:51;6.70;99.90
52058;DHT22;38063;53.210;6.504;2023-02-15T17:38:38;6.50;99.90
52058;DHT22;38063;53.210;6.504;2023-02-15T17:41:04;6.50;99.90
52058;DHT22;38063;53.210;6.504;2023-02-15T17:43:30;6.40;99.90
52058;DHT22;38063;53.210;6.504;2023-02-15T17:45:56;6.40;99.90
52058;DHT22;38063;53.210;6.504;2023-02-15T17:48:31;6.30;99.90
52058;DHT22;38063;53.210;6.504;2023-02-15T17:50:59;6.30;99.90
52058;DHT22;38063;53.210;6.504;2023-02-15T17:53:25;6.60;99.90
52058;DHT22;38063;53.210;6.504;2023-02-15T17:55:51;6.10;99.90
52058;DHT22;38063;53.210;6.504;2023-02-15T17:58:18;6.10;99.90
52058;DHT22;38063;53.210;6.504;2023-02-15T18:00:50;6.10;99.90
52058;DHT22;38063;53.210;6.504;2023-02-15T18:06:25;6.00;99.90
52058;DHT22;38063;53.210;6.504;2023-02-15T18:09:12;5.90;99.90
52058;DHT22;38063;53.210;6.504;2023-02-15T18:11:56;5.90;99.90
52058;DHT22;38063;53.210;6.504;2023-02-15T18:14:22;5.90;99.90
52058;DHT22;38063;53.210;6.504;2023-02-15T18:16:48;5.80;99.90
52058;DHT22;38063;53.210;6.504;2023-02-15T18:19:26;5.80;99.90
52058;DHT22;38063;53.210;6.504;2023-02-15T18:21:52;5.80;99.90
52058;DHT22;38063;53.210;6.504;2023-02-15T18:24:24;5.80;99.90
52058;DHT22;38063;53.210;6.504;2023-02-15T18:26:52;5.70;99.90
52058;DHT22;38063;53.210;6.504;2023-02-15T18:29:17;5.70;99.90
52058;DHT22;38063;53.210;6.504;2023-02-15T18:31:44;5.70;99.90
52058;DHT22;38063;53.210;6.504;2023-02-15T18:34:24;5.60;99.90
52058;DHT22;38063;53.210;6.504;2023-02-15T18:36:51;5.70;99.90
52058;DHT22;38063;53.210;6.504;2023-02-15T18:39:26;5.60;99.90
52058;DHT22;38063;53.210;6.504;2023-02-15T18:41:54;5.60;99.90
52058;DHT22;38063;53.210;6.504;2023-02-15T18:44:20;6.30;99.90
52058;DHT22;38063;53.210;6.504;2023-02-15T18:46:46;5.50;99.90
52058;DHT22;38063;53.210;6.504;2023-02-15T18:49:11;5.50;99.90
52058;DHT22;38063;53.210;6.504;2023-02-15T18:51:37;5.40;99.90
52058;DHT22;38063;53.210;6.504;2023-02-15T18:54:18;5.40;99.90
52058;DHT22;38063;53.210;6.504;2023-02-15T18:56:46;5.40;99.90
52058;DHT22;38063;53.210;6.504;2023-02-15T18:59:14;5.30;99.90
52058;DHT22;38063;53.210;6.504;2023-02-15T19:01:41;5.30;99.90
52058;DHT22;38063;53.210;6.504;2023-02-15T19:04:07;5.30;99.90
52058;DHT22;38063;53.210;6.504;2023-02-15T19:06:33;5.20;99.90
52058;DHT22;38063;53.210;6.504;2023-02-15T19:08:59;5.20;99.90
52058;DHT22;38063;53.210;6.504;2023-02-15T19:11:26;5.10;99.90
52058;DHT22;38063;53.210;6.504;2023-02-15T19:13:52;5.10;99.90
52058;DHT22;38063;53.210;6.504;2023-02-15T19:16:32;5.10;99.90
52058;DHT22;38063;53.210;6.504;2023-02-15T19:18:58;5.00;99.90
52058;DHT22;38063;53.210;6.504;2023-02-15T19:21:26;5.00;99.90
52058;DHT22;38063;53.210;6.504;2023-02-15T19:23:55;5.00;99.90